Christos Xl — SVA7502 — position and weather

sailwx.info

Track history (hours):
 
Tides and Currents Weather Stations Pressure Air Temp Water Temp Dewpoint Dewpoint Depression Visibility Wind Speed Wind Dir Waves Ship Positions

Christos Xl

Last reported at 2018-Jun-18 13:20 UTC. Time now 2018-Jun-23 06:28 UTC.
Position N 32°55' E 034°53'.

Length 28 m; draft 4 m.

Type: Tug. MMSI: 240025700.

Date/timePositionNaut miles runAvg speedWind from/ knotsBaromVisibWave heightAir tempDewpointWater temp
2018-Jun-18 13:20N 32°55' E 034°53'3 6.9
2018-Jun-18 12:56N 32°54' E 034°56'3 6.8
2018-Jun-18 12:28N 32°52' E 034°59'1 0.0
2018-Jun-17 14:51N 32°51' E 034°59'  
2018-Jun-14 18:35N 37°39' E 023°46'1 9.6
2018-Jun-14 18:29N 37°39' E 023°45'4 9.1
2018-Jun-14 18:00N 37°42' E 023°41'5 9.4
2018-Jun-14 17:30N 37°46' E 023°39'5 9.0
2018-Jun-14 17:00N 37°50' E 023°36'5 9.1
2018-Jun-14 16:30N 37°55' E 023°35'3 6.3
2018-Jun-14 15:59N 37°58' E 023°34'0 0.1
2018-Jun-14 15:30N 37°58' E 023°34'2 4.2
2018-Jun-14 14:59N 37°57' E 023°37'0 0.0
2018-Jun-14 14:30N 37°57' E 023°37'0 0.0
2018-Jun-14 14:00N 37°57' E 023°37'0 0.0
2018-Jun-14 13:30N 37°57' E 023°37'0 0.0
2018-Jun-14 13:00N 37°57' E 023°37'0 0.0
2018-Jun-14 12:30N 37°57' E 023°37'0 0.0
2018-Jun-14 12:00N 37°57' E 023°37'1 1.2
2018-Jun-14 11:30N 37°57' E 023°36'2 3.3
2018-Jun-14 10:59N 37°58' E 023°34'0 0.0
2018-Jun-14 10:29N 37°58' E 023°34'0 0.0
2018-Jun-14 09:53N 37°58' E 023°34'0 0.0
2018-Jun-14 09:29N 37°58' E 023°34'0 0.0
2018-Jun-14 08:59N 37°58' E 023°34'0 0.0
2018-Jun-14 08:29N 37°58' E 023°34'0 0.0
2018-Jun-14 07:59N 37°58' E 023°34'0 0.0
2018-Jun-14 07:17N 37°58' E 023°34'0 0.0
2018-Jun-14 06:53N 37°58' E 023°34'0 0.0
2018-Jun-14 06:20N 37°58' E 023°34'1 0.0
2018-Jun-13 14:41N 37°57' E 023°33'0 0.0
2018-Jun-13 14:30N 37°57' E 023°33'0 0.0
2018-Jun-13 13:59N 37°57' E 023°33'0 0.0
2018-Jun-13 13:29N 37°57' E 023°33'0 0.0
2018-Jun-13 13:00N 37°57' E 023°33'0 0.0
2018-Jun-13 12:29N 37°57' E 023°33'0 0.0
2018-Jun-13 12:00N 37°57' E 023°33'0 0.0
2018-Jun-13 11:30N 37°57' E 023°33'0 0.0
2018-Jun-13 11:00N 37°57' E 023°33'0 0.0
2018-Jun-13 10:30N 37°57' E 023°33'0 0.0
2018-Jun-13 09:59N 37°57' E 023°33'0 0.0
2018-Jun-13 09:30N 37°57' E 023°33'0 0.0
2018-Jun-13 08:59N 37°57' E 023°33'0 0.0
2018-Jun-13 08:27N 37°57' E 023°33'0 0.0
2018-Jun-13 08:00N 37°57' E 023°33'0 0.0
2018-Jun-13 07:26N 37°57' E 023°33'0 0.0
2018-Jun-13 06:59N 37°57' E 023°33'0 0.0
2018-Jun-13 06:30N 37°57' E 023°33'0 0.0
2018-Jun-13 05:56N 37°57' E 023°33'  
2018-Jun-09 10:44N 37°58' E 023°34'1 3.2
2018-Jun-09 10:30N 37°57' E 023°33'0 0.1
2018-Jun-09 09:56N 37°57' E 023°33'0 0.0
2018-Jun-09 09:25N 37°57' E 023°33'0 0.0
2018-Jun-09 08:57N 37°57' E 023°33'0 0.0
2018-Jun-09 08:27N 37°57' E 023°33'0 0.0
2018-Jun-09 07:57N 37°57' E 023°33'0 0.0
2018-Jun-09 07:27N 37°57' E 023°33'0 0.0
2018-Jun-09 06:57N 37°57' E 023°33'0 0.0
2018-Jun-09 06:28N 37°57' E 023°33'0 0.0
2018-Jun-09 05:58N 37°57' E 023°33'0 0.0
2018-Jun-09 05:28N 37°57' E 023°33'0 0.0
2018-Jun-09 04:58N 37°57' E 023°33'0 0.0
2018-Jun-09 04:28N 37°57' E 023°33'0 0.0
2018-Jun-09 03:58N 37°57' E 023°33'0 0.0
2018-Jun-09 03:28N 37°57' E 023°33'0 0.0
2018-Jun-09 02:59N 37°57' E 023°33'0 0.1
2018-Jun-09 02:28N 37°57' E 023°33'0 0.0
2018-Jun-09 01:58N 37°57' E 023°33'0 0.0
2018-Jun-09 01:28N 37°57' E 023°33'0 0.0
2018-Jun-09 00:58N 37°57' E 023°33'0 0.0
2018-Jun-09 00:28N 37°57' E 023°33'0 0.0
2018-Jun-08 23:58N 37°57' E 023°33'0 0.0
2018-Jun-08 23:28N 37°57' E 023°33'0 0.0
2018-Jun-08 22:58N 37°57' E 023°33'0 0.0
2018-Jun-08 22:28N 37°57' E 023°33'0 0.0
2018-Jun-08 21:58N 37°57' E 023°33'0 0.0
2018-Jun-08 21:28N 37°57' E 023°33'0 0.0
2018-Jun-08 20:58N 37°57' E 023°33'0 0.0
2018-Jun-08 20:28N 37°57' E 023°33'0 0.0
2018-Jun-08 19:58N 37°57' E 023°33'0 0.0
2018-Jun-08 19:28N 37°57' E 023°33'0 0.0
2018-Jun-08 18:58N 37°57' E 023°33'1 1.1
2018-Jun-08 18:30N 37°58' E 023°33'0 0.8
2018-Jun-08 17:57N 37°58' E 023°34'1 3.3
2018-Jun-08 17:30N 37°56' E 023°35'510.3
2018-Jun-08 17:00N 37°52' E 023°38'510.5
2018-Jun-08 16:30N 37°47' E 023°41'710.4
2018-Jun-08 15:48N 37°41' E 023°46'  
Track history (hours):
 
Tides and Currents Weather Stations Pressure Air Temp Water Temp Dewpoint Dewpoint Depression Visibility Wind Speed Wind Dir Waves Ship Positions

Christos Xl

Last reported at 2018-Jun-18 13:20 UTC. Time now 2018-Jun-23 06:28 UTC.
Position N 32°55' E 034°53'.

Length 28 m; draft 4 m.

Type: Tug. MMSI: 240025700.

Date/timePositionNaut miles runAvg speedWind from/ knotsBaromVisibWave heightAir tempDewpointWater temp
2018-Jun-18 13:20N 32°55' E 034°53'3 6.9
2018-Jun-18 12:56N 32°54' E 034°56'3 6.8
2018-Jun-18 12:28N 32°52' E 034°59'1 0.0
2018-Jun-17 14:51N 32°51' E 034°59'  
2018-Jun-14 18:35N 37°39' E 023°46'1 9.6
2018-Jun-14 18:29N 37°39' E 023°45'4 9.1
2018-Jun-14 18:00N 37°42' E 023°41'5 9.4
2018-Jun-14 17:30N 37°46' E 023°39'5 9.0
2018-Jun-14 17:00N 37°50' E 023°36'5 9.1
2018-Jun-14 16:30N 37°55' E 023°35'3 6.3
2018-Jun-14 15:59N 37°58' E 023°34'0 0.1
2018-Jun-14 15:30N 37°58' E 023°34'2 4.2
2018-Jun-14 14:59N 37°57' E 023°37'0 0.0
2018-Jun-14 14:30N 37°57' E 023°37'0 0.0
2018-Jun-14 14:00N 37°57' E 023°37'0 0.0
2018-Jun-14 13:30N 37°57' E 023°37'0 0.0
2018-Jun-14 13:00N 37°57' E 023°37'0 0.0
2018-Jun-14 12:30N 37°57' E 023°37'0 0.0
2018-Jun-14 12:00N 37°57' E 023°37'1 1.2
2018-Jun-14 11:30N 37°57' E 023°36'2 3.3
2018-Jun-14 10:59N 37°58' E 023°34'0 0.0
2018-Jun-14 10:29N 37°58' E 023°34'0 0.0
2018-Jun-14 09:53N 37°58' E 023°34'0 0.0
2018-Jun-14 09:29N 37°58' E 023°34'0 0.0
2018-Jun-14 08:59N 37°58' E 023°34'0 0.0
2018-Jun-14 08:29N 37°58' E 023°34'0 0.0
2018-Jun-14 07:59N 37°58' E 023°34'0 0.0
2018-Jun-14 07:17N 37°58' E 023°34'0 0.0
2018-Jun-14 06:53N 37°58' E 023°34'0 0.0
2018-Jun-14 06:20N 37°58' E 023°34'1 0.0
2018-Jun-13 14:41N 37°57' E 023°33'0 0.0
2018-Jun-13 14:30N 37°57' E 023°33'0 0.0
2018-Jun-13 13:59N 37°57' E 023°33'0 0.0
2018-Jun-13 13:29N 37°57' E 023°33'0 0.0
2018-Jun-13 13:00N 37°57' E 023°33'0 0.0
2018-Jun-13 12:29N 37°57' E 023°33'0 0.0
2018-Jun-13 12:00N 37°57' E 023°33'0 0.0
2018-Jun-13 11:30N 37°57' E 023°33'0 0.0
2018-Jun-13 11:00N 37°57' E 023°33'0 0.0
2018-Jun-13 10:30N 37°57' E 023°33'0 0.0
2018-Jun-13 09:59N 37°57' E 023°33'0 0.0
2018-Jun-13 09:30N 37°57' E 023°33'0 0.0
2018-Jun-13 08:59N 37°57' E 023°33'0 0.0
2018-Jun-13 08:27N 37°57' E 023°33'0 0.0
2018-Jun-13 08:00N 37°57' E 023°33'0 0.0
2018-Jun-13 07:26N 37°57' E 023°33'0 0.0
2018-Jun-13 06:59N 37°57' E 023°33'0 0.0
2018-Jun-13 06:30N 37°57' E 023°33'0 0.0
2018-Jun-13 05:56N 37°57' E 023°33'  
2018-Jun-09 10:44N 37°58' E 023°34'1 3.2
2018-Jun-09 10:30N 37°57' E 023°33'0 0.1
2018-Jun-09 09:56N 37°57' E 023°33'0 0.0
2018-Jun-09 09:25N 37°57' E 023°33'0 0.0
2018-Jun-09 08:57N 37°57' E 023°33'0 0.0
2018-Jun-09 08:27N 37°57' E 023°33'0 0.0
2018-Jun-09 07:57N 37°57' E 023°33'0 0.0
2018-Jun-09 07:27N 37°57' E 023°33'0 0.0
2018-Jun-09 06:57N 37°57' E 023°33'0 0.0
2018-Jun-09 06:28N 37°57' E 023°33'0 0.0
2018-Jun-09 05:58N 37°57' E 023°33'0 0.0
2018-Jun-09 05:28N 37°57' E 023°33'0 0.0
2018-Jun-09 04:58N 37°57' E 023°33'0 0.0
2018-Jun-09 04:28N 37°57' E 023°33'0 0.0
2018-Jun-09 03:58N 37°57' E 023°33'0 0.0
2018-Jun-09 03:28N 37°57' E 023°33'0 0.0
2018-Jun-09 02:59N 37°57' E 023°33'0 0.1
2018-Jun-09 02:28N 37°57' E 023°33'0 0.0
2018-Jun-09 01:58N 37°57' E 023°33'0 0.0
2018-Jun-09 01:28N 37°57' E 023°33'0 0.0
2018-Jun-09 00:58N 37°57' E 023°33'0 0.0
2018-Jun-09 00:28N 37°57' E 023°33'0 0.0
2018-Jun-08 23:58N 37°57' E 023°33'0 0.0
2018-Jun-08 23:28N 37°57' E 023°33'0 0.0
2018-Jun-08 22:58N 37°57' E 023°33'0 0.0
2018-Jun-08 22:28N 37°57' E 023°33'0 0.0
2018-Jun-08 21:58N 37°57' E 023°33'0 0.0
2018-Jun-08 21:28N 37°57' E 023°33'0 0.0
2018-Jun-08 20:58N 37°57' E 023°33'0 0.0
2018-Jun-08 20:28N 37°57' E 023°33'0 0.0
2018-Jun-08 19:58N 37°57' E 023°33'0 0.0
2018-Jun-08 19:28N 37°57' E 023°33'0 0.0
2018-Jun-08 18:58N 37°57' E 023°33'1 1.1
2018-Jun-08 18:30N 37°58' E 023°33'0 0.8
2018-Jun-08 17:57N 37°58' E 023°34'1 3.3
2018-Jun-08 17:30N 37°56' E 023°35'510.3
2018-Jun-08 17:00N 37°52' E 023°38'510.5
2018-Jun-08 16:30N 37°47' E 023°41'710.4
2018-Jun-08 15:48N 37°41' E 023°46'  

Dump ship's entire track history